Time;durP1;ratioP1;P1;durP2;ratioP2;P2;SDS_P1;SDS_P2;PMS_P1;PMS_P2;Temp;Humidity;BMP_temperature;BMP_pressure;BME280_temperature;BME280_humidity;BME280_pressure;Samples;Min_cycle;Max_cycle;Signal;HPM_P1;HPM_P2
2023/10/02 00:01:15;;;;;;;18.35;7.75;;;;;;;15.96;100.00;101845.00;5000416;28;20315;-88
2023/10/02 00:03:45;;;;;;;19.55;8.90;;;;;;;15.95;100.00;101842.47;5019307;28;20045;-87
2023/10/02 00:06:16;;;;;;;19.43;8.17;;;;;;;15.88;100.00;101834.31;5015814;28;20045;-88
2023/10/02 00:08:53;;;;;;;22.60;9.27;;;;;;;15.91;100.00;101842.06;5019697;28;20101;-87
2023/10/02 00:11:45;;;;;;;17.75;8.13;;;;;;;15.86;100.00;101838.38;5019690;28;20048;-87
2023/10/02 00:14:26;;;;;;;20.13;8.60;;;;;;;15.93;100.00;101858.31;5027672;28;20486;-87
2023/10/02 00:17:03;;;;;;;19.33;7.95;;;;;;;15.88;100.00;101842.53;5036827;28;20084;-88
2023/10/02 00:19:49;;;;;;;19.30;8.07;;;;;;;15.84;100.00;101843.22;5037056;28;20035;-88
2023/10/02 00:22:41;;;;;;;15.65;7.47;;;;;;;15.85;100.00;101840.25;5037250;28;20140;-87
2023/10/02 00:25:16;;;;;;;19.75;8.60;;;;;;;15.81;100.00;101838.19;5037024;28;20041;-87
2023/10/02 00:27:55;;;;;;;;;;;;;;;;;;;;;
2023/10/02 00:30:33;;;;;;;;;;;;;;;;;;;;;
2023/10/02 00:33:27;;;;;;;18.23;8.27;;;;;;;15.76;100.00;101838.84;5037167;28;20389;-87
2023/10/02 00:36:07;;;;;;;;;;;;;;;;;;;;;
2023/10/02 00:38:36;;;;;;;19.88;8.40;;;;;;;15.74;100.00;101847.28;5021424;28;20048;-87
2023/10/02 00:41:08;;;;;;;18.60;8.00;;;;;;;15.66;100.00;101835.78;5018435;28;20120;-87
2023/10/02 00:43:45;;;;;;;22.40;8.73;;;;;;;15.65;100.00;101836.84;5019032;28;20147;-87
2023/10/02 00:46:23;;;;;;;18.37;7.97;;;;;;;15.61;100.00;101831.84;5037113;28;20065;-87
2023/10/02 00:48:54;;;;;;;20.38;8.23;;;;;;;15.63;100.00;101839.00;5036302;28;20482;-88
2023/10/02 00:51:21;;;;;;;18.33;8.20;;;;;;;15.59;100.00;101830.41;5018686;28;20034;-87
2023/10/02 00:53:53;;;;;;;18.83;8.27;;;;;;;15.53;100.00;101834.00;5036411;28;20033;-87
2023/10/02 00:56:28;;;;;;;19.55;8.85;;;;;;;15.54;100.00;101833.78;5018752;28;20037;-88
2023/10/02 00:59:00;;;;;;;19.33;8.10;;;;;;;15.49;100.00;101825.44;5002318;28;20141;-87
2023/10/02 01:01:51;;;;;;;19.73;8.45;;;;;;;15.50;100.00;101829.84;5018281;28;20053;-87
2023/10/02 01:04:35;;;;;;;17.65;8.52;;;;;;;15.46;100.00;101825.88;5002830;28;20121;-88
2023/10/02 01:07:16;;;;;;;18.17;7.88;;;;;;;15.43;100.00;101829.06;5036405;28;20033;-88
2023/10/02 01:10:07;;;;;;;19.80;8.13;;;;;;;15.37;100.00;101819.88;5001882;28;20037;-88
2023/10/02 01:12:59;;;;;;;19.93;7.73;;;;;;;15.35;100.00;101815.66;5035977;28;20099;-88
2023/10/02 01:15:26;;;;;;;19.20;8.23;;;;;;;15.35;100.00;101811.03;5035373;28;20033;-88
2023/10/02 01:20:54;;;;;;;19.38;8.40;;;;;;;15.37;100.00;101814.41;5036306;28;20393;-88
2023/10/02 01:23:26;;;;;;;18.63;7.88;;;;;;;15.39;100.00;101814.16;5017844;28;20038;-87
2023/10/02 01:25:57;;;;;;;17.37;7.73;;;;;;;15.33;100.00;101804.13;5017359;28;20096;-87
2023/10/02 01:35:14;;;;;;;28.15;8.27;;;;;;;15.32;100.00;101807.91;4975403;28;20171;-88
2023/10/02 01:45:10;;;;;;;16.88;7.72;;;;;;;15.33;100.00;101818.63;4974590;28;20163;-88
2023/10/02 01:47:41;;;;;;;19.50;7.85;;;;;;;15.34;100.00;101816.72;4974875;28;20485;-88
2023/10/02 01:50:09;;;;;;;20.42;8.23;;;;;;;15.27;100.00;101800.41;5018377;28;20095;-88
2023/10/02 01:52:46;;;;;;;20.20;8.20;;;;;;;15.29;100.00;101801.00;5001630;28;20144;-88
2023/10/02 01:55:13;;;;;;;16.30;7.53;;;;;;;15.30;100.00;101807.31;5034892;28;20152;-87
2023/10/02 01:57:50;;;;;;;19.33;7.85;;;;;;;15.29;100.00;101805.63;5017410;28;20091;-88
2023/10/02 02:00:23;;;;;;;19.60;8.15;;;;;;;15.25;100.00;101806.09;5035428;28;20040;-87
2023/10/02 02:03:14;;;;;;;21.75;8.60;;;;;;;15.27;100.00;101809.41;5017932;28;20041;-88
2023/10/02 02:08:59;;;;;;;;;;;;;;;;;;;;;
2023/10/02 02:11:29;;;;;;;18.00;7.70;;;;;;;15.19;100.00;101801.50;5035983;28;20033;-87
2023/10/02 02:14:06;;;;;;;21.73;8.43;;;;;;;15.18;100.00;101797.09;5017331;28;20041;-87
2023/10/02 02:16:46;;;;;;;19.00;8.00;;;;;;;15.19;100.00;101808.84;4958486;28;20143;-88
2023/10/02 02:19:12;;;;;;;19.13;8.57;;;;;;;15.17;100.00;101797.31;5017477;28;20041;-87
2023/10/02 02:21:38;;;;;;;19.23;8.57;;;;;;;15.21;100.00;101809.50;5017432;28;20087;-88
2023/10/02 02:24:06;;;;;;;19.20;8.85;;;;;;;15.20;100.00;101816.00;5035065;28;20038;-88
2023/10/02 02:33:38;;;;;;;21.65;9.07;;;;;;;15.05;100.00;101797.22;4995662;28;20122;-87
2023/10/02 02:36:05;;;;;;;17.42;7.82;;;;;;;15.12;100.00;101814.41;4997596;28;20465;-87
2023/10/02 02:38:38;;;;;;;18.65;8.30;;;;;;;15.02;100.00;101795.75;5014422;28;20042;-87
2023/10/02 02:41:26;;;;;;;20.23;8.63;;;;;;;15.05;100.00;101810.88;4997332;28;20076;-87
2023/10/02 02:43:51;;;;;;;18.47;7.50;;;;;;;14.96;100.00;101796.63;4996805;28;20046;-87
2023/10/02 02:46:20;;;;;;;17.80;7.88;;;;;;;15.00;100.00;101795.16;4996933;28;20053;-87
2023/10/02 02:48:55;;;;;;;19.42;8.35;;;;;;;14.90;100.00;101784.69;4997120;28;20046;-87
2023/10/02 02:51:23;;;;;;;16.40;7.57;;;;;;;14.89;100.00;101788.47;4981888;28;20065;-88
2023/10/02 02:53:51;;;;;;;22.35;7.57;;;;;;;14.92;100.00;101795.41;4997172;28;20049;-88
2023/10/02 02:56:30;;;;;;;16.02;7.70;;;;;;;14.92;100.00;101795.41;4997120;28;20069;-87
2023/10/02 02:58:58;;;;;;;20.48;8.73;;;;;;;14.86;100.00;101779.91;4996753;28;20042;-88
2023/10/02 03:01:40;;;;;;;17.38;8.10;;;;;;;14.84;100.00;101788.31;4996636;28;20045;-88
2023/10/02 03:04:11;;;;;;;19.57;7.93;;;;;;;14.86;100.00;101794.38;5013141;28;20045;-88
2023/10/02 03:06:38;;;;;;;22.45;8.38;;;;;;;14.82;100.00;101786.84;5013210;28;20030;-88
2023/10/02 03:09:13;;;;;;;19.90;8.23;;;;;;;14.80;100.00;101778.88;4996661;28;20048;-88
2023/10/02 03:11:50;;;;;;;18.92;8.10;;;;;;;14.84;100.00;101785.59;4982441;28;20050;-88
2023/10/02 03:14:20;;;;;;;16.42;7.65;;;;;;;14.78;100.00;101777.41;4996553;28;20129;-88
2023/10/02 03:16:45;;;;;;;16.70;7.77;;;;;;;14.77;100.00;101773.88;5012859;28;20050;-88
2023/10/02 03:19:16;;;;;;;16.67;7.60;;;;;;;14.83;100.00;101774.88;4996220;28;20037;-87
2023/10/02 03:56:57;;;;;;;18.05;7.35;;;;;;;14.94;100.00;101776.06;5037486;28;20071;-87
2023/10/02 03:59:31;;;;;;;19.23;8.10;;;;;;;14.95;100.00;101775.00;5020174;28;20401;-87
2023/10/02 04:04:46;;;;;;;22.27;8.77;;;;;;;14.88;100.00;101767.69;5038122;28;20052;-88
2023/10/02 04:07:27;;;;;;;;;;;;;;;;;;;;;
2023/10/02 04:09:55;;;;;;;19.23;8.50;;;;;;;14.90;100.00;101772.94;5038082;28;20039;-88
2023/10/02 04:12:22;;;;;;;22.50;8.27;;;;;;;14.93;100.00;101774.41;5037590;28;20041;-88
2023/10/02 04:14:52;;;;;;;21.38;8.30;;;;;;;14.91;100.00;101777.31;5019766;28;20041;-88
2023/10/02 04:20:04;;;;;;;19.45;8.55;;;;;;;14.94;100.00;101779.66;5036748;28;20041;-87
2023/10/02 04:22:39;;;;;;;23.15;9.07;;;;;;;14.89;100.00;101776.72;5003955;28;20103;-87
2023/10/02 04:25:09;;;;;;;20.38;8.57;;;;;;;14.85;100.00;101757.22;5037290;28;20041;-87
2023/10/02 04:32:52;;;;;;;20.00;8.70;;;;;;;14.89;100.00;101768.53;5036661;28;20041;-88
2023/10/02 04:38:47;;;;;;;19.00;8.77;;;;;;;14.79;100.00;101763.53;5037483;28;20049;-88
2023/10/02 04:41:03;;;;;;;21.38;8.95;;;;;;;14.77;100.00;101759.38;5035256;28;20080;-87
2023/10/02 04:43:34;;;;;;;19.40;8.93;;;;;;;14.78;100.00;101758.31;5019203;28;20099;-87
2023/10/02 04:49:31;;;;;;;22.10;9.23;;;;;;;14.75;100.00;101765.06;5036660;28;20436;-87
2023/10/02 04:52:04;;;;;;;19.98;9.23;;;;;;;14.72;100.00;101755.41;5017874;28;20034;-88
2023/10/02 04:54:30;;;;;;;20.25;8.00;;;;;;;14.70;100.00;101757.53;5018609;28;20100;-88
2023/10/02 04:57:11;;;;;;;21.93;9.13;;;;;;;14.70;100.00;101764.88;5036360;28;20446;-87
2023/10/02 04:59:51;;;;;;;23.85;8.93;;;;;;;14.70;100.00;101767.59;5018273;28;20084;-88
2023/10/02 05:02:30;;;;;;;;;;;;;;;;;;;;;
2023/10/02 05:05:00;;;;;;;19.48;9.52;;;;;;;14.61;100.00;101749.78;5036824;28;20041;-88
2023/10/02 05:07:36;;;;;;;20.63;9.05;;;;;;;14.55;100.00;101760.53;5035544;28;20042;-88
2023/10/02 05:10:06;;;;;;;19.50;8.13;;;;;;;14.53;100.00;101746.25;5035078;28;20037;-87
2023/10/02 05:12:35;;;;;;;18.90;8.68;;;;;;;14.52;100.00;101754.66;5002373;28;20037;-87
2023/10/02 05:15:07;;;;;;;20.10;9.68;;;;;;;14.48;100.00;101753.44;5018372;28;20078;-87
2023/10/02 05:17:47;;;;;;;22.00;8.80;;;;;;;14.47;100.00;101755.34;5018324;28;20409;-87
2023/10/02 05:20:15;;;;;;;20.05;9.25;;;;;;;14.45;100.00;101756.59;5035085;28;20111;-87
2023/10/02 05:22:45;;;;;;;23.00;8.83;;;;;;;14.44;100.00;101765.84;5035826;28;20045;-87
2023/10/02 05:25:24;;;;;;;20.38;8.50;;;;;;;14.41;100.00;101766.28;5036214;28;20045;-88
2023/10/02 05:27:55;;;;;;;20.45;8.80;;;;;;;14.37;100.00;101763.16;5003926;28;20080;-88
2023/10/02 05:30:43;;;;;;;22.05;9.65;;;;;;;14.36;100.00;101759.59;5019184;28;20044;-87
2023/10/02 05:33:36;;;;;;;22.40;8.70;;;;;;;14.34;100.00;101769.06;5035553;28;20103;-88
2023/10/02 05:35:57;;;;;;;21.77;9.50;;;;;;;14.35;100.00;101770.72;5034650;28;20272;-88
2023/10/02 05:38:33;;;;;;;24.60;9.77;;;;;;;14.35;100.00;101774.31;5017750;28;20045;-87
2023/10/02 05:41:01;;;;;;;21.58;9.27;;;;;;;14.27;100.00;101762.81;5017519;28;20036;-88
2023/10/02 05:43:31;;;;;;;23.67;8.82;;;;;;;14.29;100.00;101767.00;5018455;28;20034;-87
2023/10/02 05:45:57;;;;;;;21.25;9.95;;;;;;;14.25;100.00;101763.00;5017789;28;20052;-88
2023/10/02 05:51:09;;;;;;;22.30;9.40;;;;;;;14.33;100.00;101784.59;5035281;28;20041;-89
2023/10/02 05:53:37;;;;;;;23.10;9.00;;;;;;;14.29;100.00;101774.31;5017416;28;20057;-88
2023/10/02 05:56:07;;;;;;;22.63;9.30;;;;;;;14.32;100.00;101791.13;5017456;28;20049;-87
2023/10/02 05:58:37;;;;;;;23.33;9.48;;;;;;;14.36;100.00;101795.09;5035302;28;20041;-88
2023/10/02 06:01:06;;;;;;;22.83;8.90;;;;;;;14.44;100.00;101804.06;5035269;28;20041;-88
2023/10/02 06:03:36;;;;;;;23.38;9.43;;;;;;;14.40;100.00;101795.50;5017176;28;20038;-86
2023/10/02 06:06:18;;;;;;;22.15;9.10;;;;;;;14.46;100.00;101799.25;5016789;28;20378;-88
2023/10/02 06:08:51;;;;;;;22.48;9.57;;;;;;;14.52;100.00;101790.16;5017069;28;20034;-88
2023/10/02 06:11:28;;;;;;;19.60;9.55;;;;;;;14.52;100.00;101796.47;5016973;28;20041;-90
2023/10/02 06:14:09;;;;;;;22.27;8.80;;;;;;;14.59;100.00;101790.97;5002761;28;20145;-88
2023/10/02 06:16:37;;;;;;;23.02;9.20;;;;;;;14.64;100.00;101793.91;5017813;28;20091;-87
2023/10/02 06:19:06;;;;;;;21.55;9.20;;;;;;;14.70;100.00;101803.13;5016379;28;20132;-87
2023/10/02 06:22:21;;;;;;;21.15;10.02;;;;;;;14.74;100.00;101797.00;5033731;28;20041;-88
2023/10/02 06:24:27;;;;;;;20.75;9.25;;;;;;;14.78;100.00;101793.81;5023209;28;20044;-87
2023/10/02 06:26:57;;;;;;;24.60;9.53;;;;;;;14.81;100.00;101782.47;5034961;28;20053;-87
2023/10/02 06:29:35;;;;;;;23.60;9.65;;;;;;;14.91;100.00;101802.78;5033935;28;20486;-87
2023/10/02 06:32:05;;;;;;;24.88;9.80;;;;;;;14.97;100.00;101798.31;5016985;28;20037;-87
2023/10/02 06:34:38;;;;;;;22.48;9.98;;;;;;;15.02;100.00;101797.66;5035130;28;20041;-86
2023/10/02 06:37:16;;;;;;;24.83;10.23;;;;;;;15.09;100.00;101799.28;5033400;28;20478;-87
2023/10/02 06:39:45;;;;;;;23.70;10.30;;;;;;;15.14;100.00;101803.25;5016581;28;20029;-87
2023/10/02 06:42:19;;;;;;;25.60;10.85;;;;;;;15.14;100.00;101790.41;5016835;28;20079;-87
2023/10/02 06:44:53;;;;;;;23.23;10.38;;;;;;;15.25;100.00;101814.28;5034370;28;20048;-87
2023/10/02 06:47:24;;;;;;;26.45;10.88;;;;;;;15.29;100.00;101803.72;5000936;28;20069;-87
2023/10/02 06:49:52;;;;;;;23.30;10.23;;;;;;;15.34;100.00;101798.44;5034577;28;20470;-87
2023/10/02 06:52:21;;;;;;;24.30;10.67;;;;;;;15.40;100.00;101805.75;5016662;28;20065;-87
2023/10/02 06:54:49;;;;;;;26.08;10.10;;;;;;;15.47;100.00;101799.38;5033495;28;20053;-88
2023/10/02 06:57:20;;;;;;;25.58;10.38;;;;;;;15.54;100.00;101800.97;5016408;28;20166;-87
2023/10/02 06:59:53;;;;;;;24.27;10.52;;;;;;;15.58;100.00;101799.47;5016684;28;20160;-88
2023/10/02 07:02:20;;;;;;;24.98;11.07;;;;;;;15.66;100.00;101800.22;5033879;28;20096;-87
2023/10/02 07:04:47;;;;;;;24.77;11.03;;;;;;;15.75;100.00;101804.34;5034177;28;20085;-87
2023/10/02 07:07:15;;;;;;;23.38;10.48;;;;;;;15.76;100.00;101787.69;5033437;28;20033;-86
2023/10/02 07:09:40;;;;;;;21.05;10.27;;;;;;;15.87;100.00;101788.03;5016268;28;20038;-87
2023/10/02 07:12:08;;;;;;;29.87;10.27;;;;;;;15.97;100.00;101788.34;5034164;28;20045;-87
2023/10/02 08:03:50;;;;;;;21.80;9.93;;;;;;;17.89;100.00;101798.44;5031437;28;20389;-88
2023/10/02 08:07:07;;;;;;;23.20;10.43;;;;;;;17.85;100.00;101798.09;5015361;28;20057;-88
2023/10/02 08:09:47;;;;;;;27.58;10.98;;;;;;;17.75;100.00;101800.63;5016263;28;20038;-88
2023/10/02 08:15:46;;;;;;;23.50;10.20;;;;;;;17.84;100.00;101804.66;5033398;28;20052;-88
2023/10/02 08:21:36;;;;;;;21.75;10.05;;;;;;;18.06;100.00;101807.63;5033022;28;20041;-88
2023/10/02 08:27:23;;;;;;;24.70;10.70;;;;;;;18.34;100.00;101813.41;5033992;28;20039;-88
2023/10/02 08:29:49;;;;;;;22.85;10.55;;;;;;;18.49;100.00;101810.13;5002482;28;20034;-88
2023/10/02 08:35:26;;;;;;;21.17;10.63;;;;;;;18.89;100.00;101817.50;5037374;28;20390;-88
2023/10/02 08:41:19;;;;;;;31.92;10.77;;;;;;;19.42;100.00;101796.91;5036487;28;20040;-88
2023/10/02 08:48:07;;;;;;;22.75;10.93;;;;;;;20.06;100.00;101811.31;5037111;28;20132;-88
2023/10/02 08:54:28;;;;;;;28.30;11.30;;;;;;;20.55;100.00;101800.34;5036617;28;20040;-88
2023/10/02 09:00:15;;;;;;;21.38;10.20;;;;;;;20.70;97.11;101772.09;4986017;28;20076;-86
2023/10/02 09:02:41;;;;;;;21.98;11.23;;;;;;;20.96;96.26;101780.59;5001931;28;20038;-87
2023/10/02 09:05:09;;;;;;;22.67;10.40;;;;;;;21.26;95.68;101782.78;5035083;28;20418;-87
2023/10/02 09:10:28;;;;;;;23.52;10.68;;;;;;;21.50;93.64;101779.63;5036235;28;20390;-86
2023/10/02 09:13:20;;;;;;;23.73;10.45;;;;;;;21.61;94.68;101792.41;5018893;28;20137;-86
2023/10/02 09:15:48;;;;;;;19.35;9.73;;;;;;;21.53;91.99;101790.16;5037202;28;20440;-86
2023/10/02 09:19:07;;;;;;;21.57;10.30;;;;;;;21.61;93.60;101795.16;5036476;28;20037;-85
2023/10/02 09:21:21;;;;;;;22.10;10.30;;;;;;;21.55;92.85;101794.34;5036445;28;20048;-87
2023/10/02 09:23:53;;;;;;;24.27;10.70;;;;;;;21.33;92.90;101793.56;5001584;28;20037;-86
2023/10/02 09:26:32;;;;;;;23.35;10.80;;;;;;;21.15;93.54;101778.28;5019217;28;20474;-85
2023/10/02 09:29:05;;;;;;;25.23;10.35;;;;;;;21.05;93.77;101772.66;5035629;28;20037;-86
2023/10/02 09:31:36;;;;;;;22.97;11.10;;;;;;;21.14;94.74;101794.00;5018485;28;20044;-86
2023/10/02 09:34:11;;;;;;;23.60;10.48;;;;;;;21.25;94.60;101788.56;5018021;28;20045;-86
2023/10/02 09:36:52;;;;;;;23.88;10.90;;;;;;;21.25;94.61;101783.03;5017838;28;20179;-86
2023/10/02 09:39:38;;;;;;;25.13;11.02;;;;;;;21.25;94.29;101796.84;5035020;28;20037;-86
2023/10/02 09:42:07;;;;;;;25.90;11.25;;;;;;;21.11;93.72;101793.69;5018729;28;20359;-86
2023/10/02 09:44:45;;;;;;;23.63;10.90;;;;;;;20.93;95.03;101789.41;5017613;28;20076;-86
2023/10/02 10:10:47;;;;;;;26.15;11.45;;;;;;;23.64;83.90;101780.34;4993313;28;20054;-87
2023/10/02 10:13:24;;;;;;;24.67;10.98;;;;;;;24.12;83.09;101784.63;4977844;28;20149;-87
2023/10/02 10:15:50;;;;;;;25.47;10.53;;;;;;;24.33;80.84;101777.88;4993578;28;20545;-87
2023/10/02 10:18:17;;;;;;;26.02;11.55;;;;;;;24.40;76.95;101777.53;4993149;28;20050;-87
2023/10/02 10:20:44;;;;;;;27.05;12.07;;;;;;;24.33;75.80;101761.22;4971534;28;20545;-87
2023/10/02 10:23:31;;;;;;;22.60;11.57;;;;;;;24.47;79.12;101760.59;5034751;28;20040;-87
2023/10/02 10:26:49;;;;;;;24.38;11.32;;;;;;;25.00;79.50;101763.53;4993130;28;20030;-87
2023/10/02 10:49:53;;;;;;;30.50;12.45;;;;;;;24.86;73.85;101738.41;4944697;28;20045;-87
2023/10/02 10:55:42;;;;;;;24.43;11.90;;;;;;;24.73;76.25;101739.06;4993397;28;20053;-86
2023/10/02 11:01:37;;;;;;;24.05;11.13;;;;;;;25.13;73.09;101739.81;5033766;28;20044;-87
2023/10/02 11:14:44;;;;;;;21.75;10.90;;;;;;;27.91;67.20;101732.00;5033798;28;20033;-86
2023/10/02 11:17:11;;;;;;;25.83;11.70;;;;;;;28.16;64.13;101722.25;5015763;28;20092;-86
2023/10/02 11:19:45;;;;;;;20.70;10.82;;;;;;;29.77;61.39;101719.78;5015830;28;20037;-86
2023/10/02 11:30:03;;;;;;;25.35;11.57;;;;;;;35.54;48.10;101724.72;5033716;28;20040;-86
2023/10/02 11:32:58;;;;;;;22.13;11.35;;;;;;;36.51;41.96;101715.59;5015037;28;20068;-87
2023/10/02 11:39:00;;;;;;;19.10;11.32;;;;;;;38.28;37.38;101696.63;5033510;28;20044;-87
2023/10/02 12:53:11;;;;;;;17.70;10.93;;;;;;;37.79;36.61;101616.31;5017355;28;20105;-88
2023/10/02 16:38:18;;;;;;;22.35;12.23;;;;;;;30.27;46.20;101321.97;5032568;28;20417;-87
2023/10/02 16:40:46;;;;;;;25.63;12.57;;;;;;;29.75;47.65;101318.25;5000020;28;20104;-88
2023/10/02 17:27:44;;;;;;;27.17;12.57;;;;;;;23.62;77.96;101303.41;5035896;28;20064;-90
2023/10/02 17:30:13;;;;;;;24.98;12.10;;;;;;;23.46;81.10;101307.44;5018523;28;20481;-87
2023/10/02 17:32:40;;;;;;;24.88;12.43;;;;;;;23.25;82.55;101293.78;5018455;28;20034;-87
2023/10/02 18:55:00;;;;;;;28.17;12.53;;;;;;;19.64;100.00;101264.88;5035700;28;20052;-87
